createdAt,value
2017-10-27T00:13:56.323Z,0
2017-10-27T00:15:08.566Z,0
2017-10-27T00:16:21.322Z,0
2017-10-27T00:17:34.586Z,0
2017-10-27T00:18:47.915Z,0
2017-10-27T00:20:00.637Z,0
2017-10-27T00:21:13.882Z,0
2017-10-27T00:22:26.650Z,0
2017-10-27T00:23:40.536Z,0
2017-10-27T00:24:52.213Z,0
2017-10-27T00:26:05.525Z,0
2017-10-27T00:27:18.763Z,0
2017-10-27T00:28:31.518Z,0
2017-10-27T00:29:44.330Z,0
2017-10-27T00:30:57.066Z,0
2017-10-27T00:32:10.004Z,0
2017-10-27T00:33:22.219Z,0
2017-10-27T00:34:35.475Z,0
2017-10-27T00:35:48.214Z,0
2017-10-27T00:37:01.491Z,0
2017-10-27T00:38:14.232Z,0
2017-10-27T00:39:26.982Z,0
2017-10-27T00:40:39.767Z,0
2017-10-27T00:41:51.628Z,0
2017-10-27T00:43:04.340Z,0
2017-10-27T00:44:16.572Z,0
2017-10-27T00:45:29.332Z,0
2017-10-27T00:46:41.548Z,0
2017-10-27T00:47:53.749Z,0
2017-10-27T00:49:07.007Z,0
2017-10-27T00:50:20.296Z,0
2017-10-27T00:51:33.005Z,0
2017-10-27T00:52:46.273Z,0
2017-10-27T00:53:58.457Z,0
2017-10-27T00:55:11.439Z,0
2017-10-27T00:56:24.730Z,0
2017-10-27T00:57:38.359Z,0
2017-10-27T00:58:50.580Z,0
2017-10-27T01:00:03.819Z,0
2017-10-27T01:01:17.091Z,0
2017-10-27T01:02:29.317Z,0
2017-10-27T01:03:42.585Z,0
2017-10-27T01:04:55.401Z,0
2017-10-27T01:06:07.152Z,0
2017-10-27T01:07:19.919Z,0
2017-10-27T01:08:32.127Z,0
2017-10-27T01:09:44.917Z,0
2017-10-27T01:10:57.665Z,0
2017-10-27T01:12:10.386Z,0
2017-10-27T01:13:23.660Z,0
2017-10-27T01:14:36.415Z,0
2017-10-27T01:15:48.650Z,0
2017-10-27T01:17:01.370Z,0
2017-10-27T01:18:14.526Z,0
2017-10-27T01:19:28.142Z,0
2017-10-27T01:20:40.876Z,0
2017-10-27T01:21:54.234Z,0
2017-10-27T01:23:06.437Z,0
2017-10-27T01:24:19.700Z,0
2017-10-27T01:25:32.968Z,0
2017-10-27T01:26:45.179Z,0
2017-10-27T01:27:58.056Z,0
2017-10-27T01:29:11.012Z,0
2017-10-27T01:30:23.769Z,0
2017-10-27T01:31:36.475Z,0
2017-10-27T01:32:49.730Z,0
2017-10-27T01:34:03.023Z,0
2017-10-27T01:35:15.766Z,0
2017-10-27T01:36:29.022Z,0
2017-10-27T01:37:41.802Z,0
2017-10-27T01:38:55.094Z,0
2017-10-27T01:40:07.854Z,0
2017-10-27T01:41:21.118Z,0
2017-10-27T01:42:34.361Z,0
2017-10-27T01:43:47.124Z,0
2017-10-27T01:45:00.367Z,0
2017-10-27T01:46:12.596Z,0
2017-10-27T01:47:25.930Z,0
2017-10-27T01:48:38.708Z,0
2017-10-27T01:49:51.495Z,0
2017-10-27T01:51:05.613Z,0
2017-10-27T01:52:19.105Z,0
2017-10-27T01:53:31.867Z,0
2017-10-27T01:54:44.622Z,0
2017-10-27T01:55:57.901Z,0
2017-10-27T01:57:10.922Z,0
2017-10-27T01:58:23.655Z,0
2017-10-27T01:59:35.840Z,0
2017-10-27T02:00:49.100Z,0
2017-10-27T02:02:02.354Z,0
2017-10-27T02:03:16.091Z,0
2017-10-27T02:04:29.065Z,0
2017-10-27T02:05:42.370Z,0
2017-10-27T02:06:55.688Z,0
2017-10-27T02:08:07.742Z,0
2017-10-27T02:09:20.991Z,0
2017-10-27T02:10:34.267Z,0
2017-10-27T02:11:47.018Z,0
2017-10-27T02:12:59.722Z,0
2017-10-27T02:14:11.394Z,0
2017-10-27T02:15:23.640Z,0
2017-10-27T02:16:36.271Z,0
2017-10-27T02:17:48.127Z,0
2017-10-27T02:19:00.880Z,0
2017-10-27T02:20:13.086Z,0
2017-10-27T02:21:26.335Z,0
2017-10-27T02:22:39.081Z,0
2017-10-27T02:23:51.827Z,0
2017-10-27T02:25:04.563Z,0
2017-10-27T02:26:18.138Z,0
2017-10-27T02:27:31.332Z,0
2017-10-27T02:28:44.162Z,0
2017-10-27T02:29:57.454Z,0
2017-10-27T02:31:10.736Z,0
2017-10-27T02:32:23.515Z,0
2017-10-27T02:33:36.810Z,0
2017-10-27T02:34:50.119Z,0
2017-10-27T02:36:02.328Z,0
2017-10-27T02:37:15.611Z,0
2017-10-27T02:38:27.835Z,0
2017-10-27T02:39:40.584Z,0
2017-10-27T02:40:53.874Z,0
2017-10-27T02:42:07.150Z,0
2017-10-27T02:43:19.910Z,0
2017-10-27T02:44:32.156Z,0
2017-10-27T02:45:44.921Z,0
2017-10-27T02:46:58.547Z,0
2017-10-27T02:48:12.018Z,0
2017-10-27T02:49:24.198Z,0
2017-10-27T02:50:37.486Z,0
2017-10-27T02:51:50.295Z,0
2017-10-27T02:53:03.053Z,0
2017-10-27T02:54:15.838Z,0
2017-10-27T02:55:29.120Z,0
2017-10-27T02:56:40.786Z,0
2017-10-27T02:57:53.558Z,0
2017-10-27T02:59:06.840Z,0
2017-10-27T03:00:19.545Z,0
2017-10-27T03:01:31.741Z,0
2017-10-27T03:02:44.466Z,0
2017-10-27T03:03:57.192Z,0
2017-10-27T03:05:09.967Z,0
2017-10-27T03:06:22.744Z,0
2017-10-27T03:07:36.013Z,0
2017-10-27T03:08:48.183Z,0
2017-10-27T03:10:00.414Z,0
2017-10-27T03:11:13.632Z,0
2017-10-27T03:12:26.393Z,0
2017-10-27T03:13:39.141Z,0
2017-10-27T03:14:51.872Z,0
2017-10-27T03:16:04.631Z,0
2017-10-27T03:17:17.325Z,0
2017-10-27T03:18:30.598Z,0
2017-10-27T03:19:42.797Z,0
2017-10-27T03:20:55.709Z,0
2017-10-27T03:22:07.905Z,0
2017-10-27T03:23:20.128Z,0
2017-10-27T03:24:33.085Z,0
2017-10-27T03:25:45.804Z,0
2017-10-27T03:26:58.520Z,0
2017-10-27T03:28:10.706Z,0
2017-10-27T03:29:23.435Z,0
2017-10-27T03:30:36.720Z,0
2017-10-27T03:31:48.955Z,0
2017-10-27T03:33:02.171Z,0
2017-10-27T03:34:14.901Z,0
2017-10-27T03:35:28.151Z,0
2017-10-27T03:36:40.911Z,0
2017-10-27T03:37:54.128Z,0
2017-10-27T03:39:07.572Z,0
2017-10-27T03:40:20.367Z,0
2017-10-27T03:41:32.598Z,0
2017-10-27T03:42:45.894Z,0
2017-10-27T03:43:59.192Z,0
2017-10-27T03:45:11.950Z,0
2017-10-27T03:46:24.654Z,0
2017-10-27T03:47:37.414Z,0
2017-10-27T03:48:49.115Z,0
2017-10-27T03:50:02.573Z,0
2017-10-27T03:51:15.854Z,0
2017-10-27T03:52:28.599Z,0
2017-10-27T03:53:41.862Z,0
2017-10-27T03:54:54.664Z,0
2017-10-27T03:56:07.602Z,0
2017-10-27T03:57:20.841Z,0
2017-10-27T03:58:33.081Z,0
2017-10-27T03:59:46.352Z,0
2017-10-27T04:00:59.078Z,0
2017-10-27T04:02:11.793Z,0
2017-10-27T04:03:25.082Z,0
2017-10-27T04:05:08.977Z,0
2017-10-27T04:06:21.710Z,0
2017-10-27T04:07:34.413Z,0
2017-10-27T04:08:47.668Z,0
2017-10-27T04:10:00.428Z,0
2017-10-27T04:11:13.700Z,0
2017-10-27T04:12:26.966Z,0
2017-10-27T04:13:40.234Z,0
2017-10-27T04:14:53.533Z,0
2017-10-27T04:16:05.246Z,0
2017-10-27T04:17:18.531Z,0
2017-10-27T04:18:31.268Z,0
2017-10-27T04:19:44.546Z,0
2017-10-27T04:20:57.262Z,0
2017-10-27T04:22:10.520Z,0
2017-10-27T04:23:23.251Z,0
2017-10-27T04:24:36.530Z,0
2017-10-27T04:25:49.231Z,0
2017-10-27T04:27:02.531Z,0
2017-10-27T04:28:16.329Z,0
2017-10-27T04:29:29.069Z,0
2017-10-27T04:30:41.821Z,0
2017-10-27T04:31:54.549Z,0
2017-10-27T04:33:07.846Z,0
2017-10-27T04:34:20.580Z,0
2017-10-27T04:35:33.315Z,0
2017-10-27T04:36:46.595Z,0
2017-10-27T04:37:59.834Z,0
2017-10-27T04:39:11.496Z,0
2017-10-27T04:40:24.198Z,0
2017-10-27T04:41:36.380Z,0
2017-10-27T04:42:49.633Z,0
2017-10-27T04:44:02.966Z,0
2017-10-27T04:45:15.150Z,0
2017-10-27T04:46:27.900Z,0
2017-10-27T04:47:41.189Z,0
2017-10-27T04:48:53.933Z,0
2017-10-27T04:50:06.695Z,0
2017-10-27T04:51:19.976Z,0
2017-10-27T04:52:33.248Z,0
2017-10-27T04:53:46.004Z,0
2017-10-27T04:55:30.446Z,0
2017-10-27T04:56:43.732Z,0
2017-10-27T04:57:55.940Z,0
2017-10-27T04:59:09.206Z,0
2017-10-27T05:00:22.639Z,0
2017-10-27T05:01:35.337Z,0
2017-10-27T05:02:47.549Z,0
2017-10-27T05:04:00.273Z,0
2017-10-27T05:05:13.081Z,0
2017-10-27T05:06:26.401Z,0
2017-10-27T05:07:39.103Z,0
2017-10-27T05:08:52.382Z,0
2017-10-27T05:10:05.128Z,0
2017-10-27T05:11:18.425Z,0
2017-10-27T05:12:31.163Z,0
2017-10-27T05:13:44.422Z,0
2017-10-27T05:14:57.677Z,0
2017-10-27T05:16:10.404Z,0
2017-10-27T05:18:26.124Z,0
2017-10-27T05:19:38.544Z,0
2017-10-27T05:20:51.340Z,0
2017-10-27T05:22:04.628Z,0
2017-10-27T05:23:17.400Z,0
2017-10-27T05:24:30.706Z,0
2017-10-27T05:25:43.928Z,0
2017-10-27T05:26:56.675Z,0
2017-10-27T05:28:09.396Z,0
2017-10-27T05:29:22.639Z,0
2017-10-27T05:30:35.394Z,0
2017-10-27T05:31:48.160Z,0
2017-10-27T05:33:01.443Z,0
2017-10-27T05:34:14.748Z,0
2017-10-27T05:35:28.060Z,0
2017-10-27T05:36:40.786Z,0
2017-10-27T05:37:54.038Z,0
2017-10-27T05:39:06.254Z,0
2017-10-27T05:40:19.519Z,0
2017-10-27T05:41:31.177Z,0
2017-10-27T05:42:43.397Z,0
2017-10-27T05:43:56.191Z,0
2017-10-27T05:45:08.945Z,0
2017-10-27T05:46:22.238Z,0
2017-10-27T05:47:34.416Z,0
2017-10-27T05:48:47.660Z,0
2017-10-27T05:50:00.400Z,0
2017-10-27T05:51:12.055Z,0
2017-10-27T05:52:25.329Z,0
2017-10-27T05:53:38.614Z,0
2017-10-27T05:54:51.887Z,0
2017-10-27T05:56:05.123Z,0
2017-10-27T05:57:17.800Z,0
2017-10-27T05:58:30.519Z,0
2017-10-27T05:59:43.216Z,0
2017-10-27T06:00:56.474Z,0
2017-10-27T06:02:09.738Z,0
2017-10-27T06:03:23.020Z,0
2017-10-27T06:04:36.279Z,0
2017-10-27T06:05:49.032Z,0
2017-10-27T06:07:02.250Z,0
2017-10-27T06:08:15.546Z,0
2017-10-27T06:09:28.774Z,0
2017-10-27T06:10:41.539Z,0
2017-10-27T06:11:54.793Z,0
2017-10-27T06:13:07.011Z,0
2017-10-27T06:14:19.193Z,0
2017-10-27T06:15:31.399Z,0
2017-10-27T06:16:44.117Z,0
2017-10-27T06:17:56.856Z,0
2017-10-27T06:19:09.077Z,0
2017-10-27T06:20:21.804Z,0
2017-10-27T06:21:34.545Z,0
2017-10-27T06:22:46.797Z,0
2017-10-27T06:23:59.518Z,0
2017-10-27T06:25:12.240Z,0
2017-10-27T06:26:24.958Z,0
2017-10-27T06:27:38.241Z,0
2017-10-27T06:28:50.989Z,0
2017-10-27T06:30:02.658Z,0
2017-10-27T06:31:15.409Z,0
2017-10-27T06:32:27.638Z,0
2017-10-27T06:33:40.350Z,0
2017-10-27T06:34:53.632Z,0
2017-10-27T06:36:05.821Z,0
2017-10-27T06:37:19.091Z,0
2017-10-27T06:38:32.315Z,0
2017-10-27T06:39:45.703Z,0
2017-10-27T06:40:57.989Z,0
2017-10-27T06:42:10.719Z,0
2017-10-27T06:45:07.842Z,0
2017-10-27T06:46:20.572Z,0
2017-10-27T06:47:33.406Z,0
2017-10-27T06:48:45.620Z,0
2017-10-27T06:49:58.894Z,0
2017-10-27T06:51:12.139Z,0
2017-10-27T06:52:25.421Z,0
2017-10-27T06:53:38.165Z,0
2017-10-27T06:54:50.905Z,0
2017-10-27T06:56:03.102Z,0
2017-10-27T06:57:15.844Z,0
2017-10-27T06:58:28.580Z,0
2017-10-27T06:59:41.323Z,0
2017-10-27T07:00:53.508Z,0
2017-10-27T07:02:06.233Z,0
2017-10-27T07:03:19.488Z,0
2017-10-27T07:04:32.286Z,0
2017-10-27T07:05:45.600Z,0
2017-10-27T07:06:59.097Z,0
2017-10-27T07:08:11.829Z,0
2017-10-27T07:09:24.576Z,0
2017-10-27T07:10:38.089Z,0
2017-10-27T07:11:50.862Z,0
2017-10-27T07:13:03.048Z,0
2017-10-27T07:14:16.587Z,0
2017-10-27T07:15:28.887Z,0
2017-10-27T07:16:41.629Z,0
2017-10-27T07:17:54.380Z,0
2017-10-27T07:19:07.658Z,0
2017-10-27T07:20:19.855Z,0
2017-10-27T07:21:32.626Z,0
2017-10-27T07:22:45.896Z,0
2017-10-27T07:23:58.639Z,0
2017-10-27T07:25:10.861Z,0
2017-10-27T07:26:24.127Z,0
2017-10-27T07:27:36.844Z,0
2017-10-27T09:00:27.489Z,105
2017-10-27T09:01:40.218Z,120
2017-10-27T09:02:52.986Z,135
2017-10-27T09:04:05.229Z,140
2017-10-27T09:05:18.529Z,150
2017-10-27T09:06:31.427Z,155
2017-10-27T09:07:45.327Z,160
2017-10-27T09:08:58.550Z,165
2017-10-27T09:10:09.696Z,160
2017-10-27T09:11:22.949Z,150
2017-10-27T09:12:35.689Z,145
2017-10-27T09:13:48.025Z,150
2017-10-27T09:15:01.943Z,175
2017-10-27T09:16:14.513Z,190
2017-10-27T09:17:26.728Z,210
2017-10-27T09:18:39.430Z,220
2017-10-27T09:19:52.169Z,235
2017-10-27T09:21:05.437Z,245
2017-10-27T09:22:18.701Z,255
2017-10-27T09:23:30.892Z,270
2017-10-27T09:24:44.138Z,285
2017-10-27T09:25:57.420Z,295
2017-10-27T09:27:10.678Z,300
2017-10-27T09:28:23.386Z,305
2017-10-27T09:29:36.107Z,315
2017-10-27T09:30:48.881Z,320
2017-10-27T09:32:01.610Z,325
2017-10-27T09:33:15.084Z,325
2017-10-27T09:34:28.358Z,325
2017-10-27T09:35:41.482Z,325
2017-10-27T09:36:54.383Z,330
2017-10-27T09:38:07.516Z,340
2017-10-27T09:39:21.356Z,345
2017-10-27T09:40:34.117Z,350
2017-10-27T09:41:46.842Z,355
2017-10-27T09:42:59.568Z,355
2017-10-27T09:44:11.746Z,360
2017-10-27T09:45:25.007Z,365
2017-10-27T09:46:38.787Z,360
2017-10-27T09:47:52.170Z,365
2017-10-27T09:49:05.525Z,385
2017-10-27T09:50:17.740Z,400
2017-10-27T09:51:30.992Z,420
2017-10-27T09:52:43.718Z,445
2017-10-27T09:53:56.443Z,460
2017-10-27T09:55:09.158Z,480
2017-10-27T09:56:22.472Z,495
2017-10-27T09:57:35.189Z,510
2017-10-27T09:58:47.929Z,515
2017-10-27T10:00:01.207Z,520
2017-10-27T10:01:14.496Z,520
2017-10-27T10:02:27.999Z,520
2017-10-27T10:03:40.730Z,525
2017-10-27T10:04:53.430Z,530
2017-10-27T10:06:06.707Z,540
2017-10-27T10:07:19.022Z,550
2017-10-27T10:08:32.328Z,560
2017-10-27T10:09:45.071Z,585
2017-10-27T10:10:57.783Z,610
2017-10-27T10:12:11.047Z,625
2017-10-27T10:13:24.503Z,650
2017-10-27T10:14:37.755Z,665
2017-10-27T10:15:50.687Z,685
2017-10-27T10:17:02.916Z,715
2017-10-27T10:18:15.783Z,705
2017-10-27T10:19:28.671Z,715
2017-10-27T10:20:41.997Z,705
2017-10-27T10:21:54.751Z,705
2017-10-27T10:23:07.045Z,695
2017-10-27T10:24:20.304Z,695
2017-10-27T10:25:33.059Z,710
2017-10-27T10:26:45.811Z,710
2017-10-27T10:27:59.366Z,720
2017-10-27T10:29:11.615Z,740
2017-10-27T10:30:24.963Z,765
2017-10-27T10:31:37.733Z,790
2017-10-27T10:32:49.970Z,815
2017-10-27T10:34:02.710Z,840
2017-10-27T10:35:15.471Z,865
2017-10-27T10:36:28.179Z,880
2017-10-27T10:37:40.777Z,915
2017-10-27T10:38:53.614Z,955
2017-10-27T10:40:05.866Z,1015
2017-10-27T10:41:18.151Z,1015
2017-10-27T10:42:30.927Z,1055
2017-10-27T10:43:43.917Z,1010
2017-10-27T10:44:56.169Z,955
2017-10-27T10:46:08.895Z,965
2017-10-27T10:47:22.286Z,950
2017-10-27T10:48:36.578Z,940
2017-10-27T10:49:49.658Z,890
2017-10-27T10:51:02.593Z,895
2017-10-27T10:52:15.894Z,910
2017-10-27T10:53:29.180Z,920
2017-10-27T10:54:43.246Z,920
2017-10-27T10:55:56.830Z,940
2017-10-27T10:57:10.211Z,905
2017-10-27T10:58:23.629Z,900
2017-10-27T10:59:37.293Z,905
2017-10-27T11:00:50.587Z,935
2017-10-27T11:02:03.866Z,955
2017-10-27T11:03:16.766Z,985
2017-10-27T11:04:30.249Z,1020
2017-10-27T11:05:42.662Z,1055
2017-10-27T11:06:55.774Z,1080
2017-10-27T11:08:09.029Z,1155
2017-10-27T11:09:21.765Z,1165
2017-10-27T11:10:35.430Z,1175
2017-10-27T11:11:49.043Z,1235
2017-10-27T11:13:02.184Z,1190
2017-10-27T11:14:15.426Z,1065
2017-10-27T11:15:28.276Z,905
2017-10-27T11:16:41.549Z,770
2017-10-27T11:17:53.787Z,575
2017-10-27T11:19:07.094Z,410
2017-10-27T11:20:20.798Z,330
2017-10-27T11:21:34.086Z,320
2017-10-27T11:22:47.144Z,375
2017-10-27T11:23:59.883Z,470
2017-10-27T11:25:12.601Z,570
2017-10-27T11:26:26.117Z,680
2017-10-27T11:27:38.306Z,820
2017-10-27T11:28:50.534Z,935
2017-10-27T11:30:05.179Z,1020
2017-10-27T11:31:18.003Z,980
2017-10-27T11:32:30.785Z,870
2017-10-27T11:33:43.323Z,770
2017-10-27T11:34:55.643Z,665
2017-10-27T11:36:08.902Z,520
2017-10-27T11:37:22.149Z,410
2017-10-27T11:38:34.865Z,340
2017-10-27T11:39:48.340Z,280
2017-10-27T11:41:02.476Z,250
2017-10-27T11:42:15.703Z,265
2017-10-27T11:43:28.840Z,265
2017-10-27T11:44:42.215Z,220
2017-10-27T11:45:54.439Z,180
2017-10-27T11:47:07.935Z,165
2017-10-27T11:48:20.592Z,170
2017-10-27T11:49:33.560Z,185
2017-10-27T11:50:46.461Z,185
2017-10-27T11:51:59.730Z,170
2017-10-27T11:53:12.469Z,160
2017-10-27T11:54:25.818Z,150
2017-10-27T11:55:38.716Z,140
2017-10-27T11:56:50.385Z,145
2017-10-27T11:58:03.316Z,150
2017-10-27T11:59:16.686Z,155
2017-10-27T12:00:29.705Z,160
2017-10-27T12:01:42.192Z,160
2017-10-27T12:02:56.197Z,165
2017-10-27T12:04:08.642Z,170
2017-10-27T12:05:20.853Z,175
2017-10-27T12:06:34.858Z,195
2017-10-27T12:07:47.622Z,220
2017-10-27T12:09:00.026Z,255
2017-10-27T12:10:12.570Z,315
2017-10-27T12:11:25.865Z,380
2017-10-27T12:12:39.303Z,475
2017-10-27T12:13:52.213Z,585
2017-10-27T12:15:04.945Z,690
2017-10-27T12:16:17.672Z,785
2017-10-27T12:17:31.647Z,865
2017-10-27T12:18:45.652Z,945
2017-10-27T12:19:59.580Z,1020
2017-10-27T12:21:12.300Z,1110
2017-10-27T12:22:25.615Z,1240
2017-10-27T12:23:38.913Z,1395
2017-10-27T12:24:52.230Z,1570
2017-10-27T12:26:05.543Z,2065
2017-10-27T12:27:18.856Z,1320
2017-10-27T12:28:31.086Z,1095
2017-10-27T12:29:44.369Z,970
2017-10-27T12:30:57.136Z,900
2017-10-27T12:32:11.070Z,830
2017-10-27T12:33:24.354Z,735
2017-10-27T12:34:36.574Z,675
2017-10-27T12:35:49.372Z,665
2017-10-27T12:37:03.175Z,675
2017-10-27T12:38:16.445Z,680
2017-10-27T12:39:29.723Z,655
2017-10-27T12:40:42.880Z,630
2017-10-27T12:41:55.651Z,600
2017-10-27T12:43:08.411Z,555
2017-10-27T12:44:20.102Z,505
2017-10-27T12:45:33.377Z,450
2017-10-27T12:46:46.109Z,405
2017-10-27T12:47:59.457Z,390
2017-10-27T12:49:12.744Z,420
2017-10-27T12:50:26.008Z,460
2017-10-27T12:51:38.216Z,495
2017-10-27T12:52:51.537Z,520
2017-10-27T12:54:04.444Z,550
2017-10-27T12:55:17.737Z,565
2017-10-27T12:56:31.047Z,550
2017-10-27T12:57:44.274Z,530
2017-10-27T12:58:57.021Z,530
2017-10-27T13:00:09.832Z,550
2017-10-27T13:01:22.581Z,590
2017-10-27T13:02:35.840Z,640
2017-10-27T13:03:48.568Z,705
2017-10-27T13:05:00.769Z,785
2017-10-27T13:06:13.063Z,845
2017-10-27T13:07:25.319Z,945
2017-10-27T13:08:37.513Z,1055
2017-10-27T13:09:50.703Z,1160
2017-10-27T13:11:03.984Z,1265
2017-10-27T13:12:16.777Z,1725
2017-10-27T13:13:28.637Z,2250
2017-10-27T13:14:40.820Z,1800
2017-10-27T13:15:53.518Z,2645
2017-10-27T13:17:05.720Z,2045
2017-10-27T13:18:18.966Z,2040
2017-10-27T13:19:31.684Z,4195
2017-10-27T13:20:43.878Z,2630
2017-10-27T13:21:57.137Z,2690
2017-10-27T13:23:41.557Z,3285
2017-10-27T13:24:54.322Z,2870
2017-10-27T13:26:06.429Z,2290
2017-10-27T13:27:19.205Z,2225
2017-10-27T13:28:33.085Z,2550
2017-10-27T13:29:46.414Z,3955
2017-10-27T13:30:59.925Z,4010
2017-10-27T13:32:13.841Z,3790
2017-10-27T13:36:02.153Z,1890
2017-10-27T13:37:14.343Z,3075
2017-10-27T13:38:27.060Z,3495
2017-10-27T13:39:40.373Z,3300
2017-10-27T13:40:54.227Z,3380
2017-10-27T13:42:07.686Z,2560
2017-10-27T13:43:20.983Z,2035
2017-10-27T13:44:33.773Z,2635
2017-10-27T13:45:46.536Z,3400
2017-10-27T13:46:59.317Z,3470
2017-10-27T13:48:12.574Z,3270
2017-10-27T13:49:25.352Z,2875
2017-10-27T13:50:38.646Z,3500
2017-10-27T13:51:51.889Z,3565
2017-10-27T13:53:04.132Z,3600
2017-10-27T13:54:16.874Z,3525
2017-10-27T13:55:30.113Z,3665
2017-10-27T13:56:42.844Z,3805
2017-10-27T13:57:56.117Z,3750
2017-10-27T13:59:08.880Z,3345
2017-10-27T14:00:22.780Z,2385
2017-10-27T14:01:35.022Z,2060
2017-10-27T14:02:48.303Z,2270
2017-10-27T14:04:01.594Z,1965
2017-10-27T14:05:14.609Z,2010
2017-10-27T14:06:27.897Z,1870
2017-10-27T14:07:40.115Z,1760
2017-10-27T14:08:52.329Z,1745
2017-10-27T14:10:05.271Z,1715
2017-10-27T14:11:18.028Z,1615
2017-10-27T14:12:31.316Z,1375
2017-10-27T14:13:42.987Z,1150
2017-10-27T14:14:55.699Z,935
2017-10-27T14:16:08.508Z,760
2017-10-27T14:17:21.824Z,595
2017-10-27T14:18:35.108Z,500
2017-10-27T14:19:47.297Z,475
2017-10-27T14:20:59.628Z,440
2017-10-27T14:22:12.869Z,380
2017-10-27T14:23:25.036Z,350
2017-10-27T14:24:38.362Z,340
2017-10-27T14:25:51.645Z,335
2017-10-27T14:27:04.922Z,325
2017-10-27T14:28:17.869Z,345
2017-10-27T14:29:31.156Z,390
2017-10-27T14:30:43.905Z,435
2017-10-27T14:31:56.663Z,500
2017-10-27T14:33:09.102Z,530
2017-10-27T14:34:22.165Z,545
2017-10-27T14:35:34.510Z,550
2017-10-27T14:36:47.779Z,545
2017-10-27T14:38:00.003Z,545
2017-10-27T14:39:12.185Z,550
2017-10-27T14:40:24.352Z,565
2017-10-27T14:41:37.630Z,575
2017-10-27T14:42:49.873Z,585
2017-10-27T14:44:02.648Z,595
2017-10-27T14:45:14.875Z,590
2017-10-27T14:46:28.739Z,600
2017-10-27T14:47:41.486Z,625
2017-10-27T14:48:54.750Z,645
2017-10-27T14:50:08.051Z,665
2017-10-27T14:51:20.818Z,705
2017-10-27T14:52:35.165Z,755
2017-10-27T14:53:48.446Z,825
2017-10-27T14:55:01.730Z,920
2017-10-27T14:56:14.458Z,1040
2017-10-27T14:57:27.150Z,1140
2017-10-27T14:58:40.355Z,1210
2017-10-27T14:59:54.442Z,1240
2017-10-27T15:01:06.658Z,1285
2017-10-27T15:02:19.432Z,1365
2017-10-27T15:03:32.715Z,1440
2017-10-27T15:04:45.967Z,1460
2017-10-27T15:05:58.721Z,1420
2017-10-27T15:07:11.988Z,1390
2017-10-27T15:08:24.652Z,1395
2017-10-27T15:09:37.416Z,1455
2017-10-27T15:10:50.680Z,1595
2017-10-27T15:12:02.923Z,1640
2017-10-27T15:13:15.707Z,1785
2017-10-27T15:14:28.514Z,2170
2017-10-27T15:15:41.299Z,2180
2017-10-27T15:16:54.032Z,1925
2017-10-27T15:18:07.292Z,1855
2017-10-27T15:19:20.549Z,1970
2017-10-27T15:20:33.416Z,2795
2017-10-27T15:21:46.288Z,2610
2017-10-27T15:22:59.566Z,2205
2017-10-27T15:24:12.856Z,2220
2017-10-27T15:25:26.191Z,3115
2017-10-27T15:26:38.391Z,3980
2017-10-27T15:27:51.153Z,3880
2017-10-27T15:29:04.504Z,3765
2017-10-27T15:30:17.781Z,4035
2017-10-27T15:31:31.339Z,2685
2017-10-27T15:32:44.714Z,1895
2017-10-27T15:33:56.955Z,1860
2017-10-27T15:35:09.729Z,2615
2017-10-27T15:36:22.475Z,2020
2017-10-27T15:37:35.188Z,1990
2017-10-27T15:38:47.926Z,1865
2017-10-27T15:40:01.265Z,1555
2017-10-27T15:41:15.174Z,1225
2017-10-27T15:42:27.797Z,945
2017-10-27T15:43:41.199Z,715
2017-10-27T15:44:54.556Z,610
2017-10-27T15:46:08.222Z,565
2017-10-27T15:47:20.529Z,500
2017-10-27T15:48:33.262Z,465
2017-10-27T15:49:46.582Z,415
2017-10-27T15:50:59.999Z,395
2017-10-27T15:52:13.307Z,405
2017-10-27T15:53:26.641Z,425
2017-10-27T15:54:39.962Z,455
2017-10-27T15:55:52.208Z,500
2017-10-27T15:57:05.470Z,540
2017-10-27T15:58:18.754Z,550
2017-10-27T15:59:32.087Z,545
2017-10-27T16:00:44.836Z,535
2017-10-27T16:01:55.992Z,535
2017-10-27T16:03:09.288Z,575
2017-10-27T16:04:21.619Z,625
2017-10-27T16:05:34.367Z,675
2017-10-27T16:06:46.585Z,695
2017-10-27T16:07:59.926Z,675
2017-10-27T16:09:13.215Z,650
2017-10-27T16:10:25.983Z,640
2017-10-27T16:11:39.262Z,645
2017-10-27T16:12:52.545Z,655
2017-10-27T16:14:06.408Z,690
2017-10-27T16:15:19.694Z,720
2017-10-27T16:16:32.954Z,710
2017-10-27T16:17:45.907Z,670
2017-10-27T16:18:59.191Z,605
2017-10-27T16:20:12.478Z,490
2017-10-27T16:21:25.259Z,385
2017-10-27T16:22:37.436Z,320
2017-10-27T16:23:50.685Z,295
2017-10-27T16:25:02.898Z,285
2017-10-27T16:26:15.145Z,265
2017-10-27T16:27:28.396Z,245
2017-10-27T16:28:40.073Z,245
2017-10-27T16:29:53.319Z,250
2017-10-27T16:31:06.070Z,245
2017-10-27T16:32:19.321Z,220
2017-10-27T16:33:32.586Z,210
2017-10-27T16:34:45.866Z,205
2017-10-27T16:35:58.646Z,195
2017-10-27T16:37:11.937Z,185
2017-10-27T16:38:25.240Z,185
2017-10-27T16:39:37.430Z,180
2017-10-27T16:40:50.719Z,175
2017-10-27T16:42:04.050Z,175
2017-10-27T16:43:16.839Z,155
2017-10-27T16:44:30.362Z,145
2017-10-27T16:45:43.634Z,145
2017-10-27T16:46:56.388Z,140
2017-10-27T16:48:10.283Z,135
2017-10-27T16:49:23.611Z,130
2017-10-27T16:50:36.342Z,125
2017-10-27T16:51:49.318Z,120
2017-10-27T16:53:02.058Z,120
2017-10-27T16:54:15.433Z,120
2017-10-27T16:55:28.719Z,145
2017-10-27T16:56:41.461Z,170
2017-10-27T16:57:54.219Z,180
2017-10-27T16:59:07.474Z,195
2017-10-27T17:00:20.215Z,205
2017-10-27T17:01:34.081Z,215
2017-10-27T17:02:46.264Z,210
2017-10-27T17:03:58.472Z,190
2017-10-27T17:05:11.787Z,180
2017-10-27T17:06:24.519Z,185
2017-10-27T17:07:36.736Z,200
2017-10-27T17:08:49.488Z,220
2017-10-27T17:10:02.234Z,230
2017-10-27T17:11:15.496Z,245
2017-10-27T17:12:28.430Z,270
2017-10-27T17:13:41.161Z,275
2017-10-27T17:14:54.476Z,285
2017-10-27T17:16:06.231Z,305
2017-10-27T17:17:18.976Z,325
2017-10-27T17:18:31.705Z,330
2017-10-27T17:19:43.992Z,345
2017-10-27T17:20:56.185Z,345
2017-10-27T17:22:09.402Z,355
2017-10-27T17:23:22.922Z,380
2017-10-27T17:24:35.130Z,420
2017-10-27T17:25:48.968Z,460
2017-10-27T17:27:02.285Z,490
2017-10-27T17:28:15.504Z,515
2017-10-27T17:29:28.773Z,535
2017-10-27T17:30:42.132Z,555
2017-10-27T17:31:54.850Z,570
2017-10-27T17:33:08.124Z,585
2017-10-27T17:34:21.412Z,590
2017-10-27T17:35:34.141Z,580
2017-10-27T17:36:47.411Z,550
2017-10-27T17:38:00.577Z,515
2017-10-27T17:39:13.309Z,470
2017-10-27T17:40:26.605Z,440
2017-10-27T17:41:39.873Z,415
2017-10-27T17:42:53.121Z,405
2017-10-27T17:44:07.058Z,415
2017-10-27T17:45:19.890Z,425
2017-10-27T17:46:32.078Z,440
2017-10-27T17:47:45.115Z,460
2017-10-27T17:48:57.318Z,475
2017-10-27T17:50:10.076Z,510
2017-10-27T17:51:22.818Z,555
2017-10-27T17:52:36.044Z,610
2017-10-27T17:53:48.325Z,675
2017-10-27T17:55:01.053Z,735
2017-10-27T17:56:14.300Z,795
2017-10-27T17:57:26.518Z,845
2017-10-27T17:58:39.231Z,900
2017-10-27T17:59:52.552Z,955
2017-10-27T18:01:04.774Z,985
2017-10-27T18:02:17.498Z,995
2017-10-27T18:03:30.776Z,425
2017-10-27T18:04:42.959Z,350
2017-10-27T18:05:55.706Z,860
2017-10-27T18:07:08.966Z,790
2017-10-27T18:08:21.704Z,745
2017-10-27T18:09:33.938Z,755
2017-10-27T18:10:46.693Z,805
2017-10-27T18:11:59.980Z,865
2017-10-27T18:13:13.282Z,925
2017-10-27T18:14:26.562Z,950
2017-10-27T18:15:39.871Z,960
2017-10-27T18:16:53.114Z,980
2017-10-27T18:18:05.893Z,1070
2017-10-27T18:19:19.192Z,1030
2017-10-27T18:20:32.452Z,1020
2017-10-27T18:21:45.179Z,1040
2017-10-27T18:22:58.430Z,1050
2017-10-27T18:24:11.692Z,1045
2017-10-27T18:25:23.917Z,1045
2017-10-27T18:26:37.184Z,1050
2017-10-27T18:27:49.380Z,1055
2017-10-27T18:29:00.510Z,1040
2017-10-27T18:30:13.819Z,980
2017-10-27T18:31:27.113Z,960
2017-10-27T18:32:39.843Z,995
2017-10-27T18:33:52.624Z,970
2017-10-27T18:35:04.883Z,940
2017-10-27T18:36:16.548Z,930
2017-10-27T18:37:29.320Z,920
2017-10-27T18:38:42.499Z,940
2017-10-27T18:39:55.809Z,935
2017-10-27T18:41:07.490Z,940
2017-10-27T18:42:20.748Z,940
2017-10-27T18:43:34.046Z,940
2017-10-27T18:44:47.321Z,955
2017-10-27T18:45:59.511Z,960
2017-10-27T18:47:12.250Z,990
2017-10-27T18:48:25.720Z,1005
2017-10-27T18:49:37.940Z,990
2017-10-27T18:50:50.879Z,975
2017-10-27T18:52:04.128Z,965
2017-10-27T18:53:16.854Z,940
2017-10-27T18:54:30.165Z,910
2017-10-27T18:55:42.904Z,885
2017-10-27T18:56:55.178Z,860
2017-10-27T18:58:07.948Z,840
2017-10-27T18:59:20.193Z,820
2017-10-27T19:00:33.518Z,805